EDDTLPMA

Guest
Details From EDDT - Berlin Tegel
To LPMA - Madeira
Flight Number -
Tags Generated
Created
Modified
Stats Distance 1,763 nm / 3,264 km
Max Altitude 0 ft / 0 m
Waypoints 8
Social Downloads 1
Likes 0
Share VATSIM

Download

Looking for another format? Having issues loading an existing format? Contact us
Advertisement - Login to hide

Notes

Generated

Route

EDDT MASIR TY DIDRU NORAY VIS MAD LPMA

ID Type Via Altitude Latitude Longitude Leg Dist Tot Dist Heading (true) Name
O EDDT APT - 0 ft / 0 m 52.55668˚ 13.27499˚ - 0 nm - -
MASIR FIX - 0 ft / 0 m 50.25500˚ 7.73800˚ 249 nm 249 nm 239° / 234° -
TY NDB - 0 ft / 0 m 48.40028˚ 4.00389˚ 183 nm 432 nm 234° / 231° Troyes Barberey NDB
DIDRU FIX - 0 ft / 0 m 46.18167˚ 0.03111˚ 209 nm 642 nm 232° / 229° -
NORAY FIX - 0 ft / 0 m 43.50563˚ -4.10973˚ 238 nm 880 nm 229° / 226° -
VIS VOR - 0 ft / 0 m 40.72333˚ -7.88583˚ 237 nm 1118 nm 226° / 224° VISEU VOR-DME
MAD NDB - 0 ft / 0 m 32.74813˚ -16.70651˚ 639 nm 1757 nm 224° / 219° MADEIRA NDB
O LPMA APT - 0 ft / 0 m 32.68900˚ -16.78409˚ 5 nm 1762 nm 228° / 228° -

Altitude Profile

Advertisement - Login to hide

Weather


0- 5 10 15 20 25 30 35+ Temperature / ° C

Clouds and Precipitation
Forecast for 2017-12-18 18:00 UTC. Updated 2 hours ago

Ground ~20,000 ft ~40,000 ft Winds

EDDT

Details ICAO EDDT (TXL)
Name Berlin Tegel
Region Germany - Civil
Timezone Europe/Berlin (UTC+1.0)
Stats Elevation 122 ft / 37 m (AMSL)
Location 52.559100° 13.290188°
Runways 2
Magnetic Variation 3.753° E

METAR

EDDT 181450Z 14003KT CAVOK 02/M03 Q1026 NOSIG

Decode

TAF

TAF EDDT 181100Z 1812/1912 13005KT 9999 FEW040 BECMG 1819/1822 19003KT BECMG 1906/1908 25005KT BECMG 1909/1912 BKN009 TEMPO 1909/1912 3500 -SNRA BKN004

Decode

Departure Runways

ID Width Length Bearing (true) Bearing (mag) Surface Threshold Offset Overrun Length
08L 151 ft / 46 m 9,885 ft / 3,013 m 80.83° 77.08° Asphalt 0 ft / 0 m 226 ft / 69 m
08R 151 ft / 46 m 7,923 ft / 2,415 m 80.84° 77.09° Asphalt 341 ft / 104 m 207 ft / 63 m
26L 151 ft / 46 m 7,923 ft / 2,415 m 260.87° 257.12° Asphalt 722 ft / 220 m 157 ft / 48 m
26R 151 ft / 46 m 9,885 ft / 3,013 m 260.86° 257.11° Asphalt 0 ft / 0 m 223 ft / 68 m

LPMA

Details ICAO LPMA (FNC)
Name Madeira
Region Portugal
Timezone Atlantic/Madeira (UTC+0.0)
Stats Elevation 192 ft / 59 m (AMSL)
Location 32.697704° -16.774449°
Runways 1
Magnetic Variation 4.980° W

METAR

LPMA 181500Z 03011KT 350V050 9999 BKN025 18/10 Q1028

Decode

TAF

TAF LPMA 181100Z 1812/1912 02012KT 9999 SCT015 SCT030 PROB40 TEMPO 1812/1912 BKN015

Decode

Destination Runways

ID Width Length Bearing (true) Bearing (mag) Surface Threshold Offset Overrun Length
05 141 ft / 43 m 8,683 ft / 2,647 m 42.98° 47.96° Asphalt 472 ft / 144 m 0 ft / 0 m
23 141 ft / 43 m 8,683 ft / 2,647 m 222.99° 227.97° Asphalt 466 ft / 142 m 0 ft / 0 m

Popular Alternatives